createdAt,value
2018-04-16T00:01:59.659Z,111.00
2018-04-16T00:04:34.524Z,97.77
2018-04-16T00:07:08.157Z,96.27
2018-04-16T00:09:42.625Z,96.10
2018-04-16T00:12:17.228Z,77.47
2018-04-16T00:14:51.464Z,90.23
2018-04-16T00:17:25.849Z,88.13
2018-04-16T00:19:59.530Z,79.77
2018-04-16T00:22:32.947Z,86.57
2018-04-16T00:25:06.411Z,99.67
2018-04-16T00:27:40.083Z,106.87
2018-04-16T00:30:14.709Z,107.97
2018-04-16T00:32:53.713Z,110.60
2018-04-16T00:35:32.759Z,105.20
2018-04-16T00:38:12.865Z,91.17
2018-04-16T00:40:51.887Z,91.93
2018-04-16T00:43:30.981Z,100.83
2018-04-16T00:46:10.189Z,103.07
2018-04-16T00:48:49.259Z,95.17
2018-04-16T00:51:28.492Z,95.13
2018-04-16T00:54:18.896Z,86.90
2018-04-16T00:56:58.060Z,101.97
2018-04-16T00:59:37.255Z,95.83
2018-04-16T01:02:17.380Z,95.67
2018-04-16T01:04:56.437Z,97.10
2018-04-16T01:07:35.565Z,95.53
2018-04-16T01:10:15.623Z,96.57
2018-04-16T01:12:55.433Z,93.37
2018-04-16T01:15:35.406Z,112.13
2018-04-16T01:18:14.368Z,113.50
2018-04-16T01:20:55.374Z,117.23
2018-04-16T01:23:34.513Z,118.50
2018-04-16T01:26:13.554Z,121.73
2018-04-16T01:28:52.692Z,128.53
2018-04-16T01:31:32.710Z,121.87
2018-04-16T01:34:11.901Z,123.90
2018-04-16T01:36:51.813Z,121.83
2018-04-16T01:39:31.044Z,128.77
2018-04-16T01:42:10.074Z,114.83
2018-04-16T01:47:55.762Z,123.80
2018-04-16T01:50:39.554Z,111.40
2018-04-16T01:53:18.688Z,110.27
2018-04-16T01:55:58.454Z,109.30
2018-04-16T01:58:37.856Z,105.37
2018-04-16T02:01:17.034Z,99.70
2018-04-16T02:03:56.089Z,91.83
2018-04-16T02:06:35.073Z,103.77
2018-04-16T02:09:13.435Z,90.53
2018-04-16T02:11:53.292Z,102.60
2018-04-16T02:14:33.083Z,99.97
2018-04-16T02:17:12.192Z,96.73
2018-04-16T02:19:51.180Z,85.37
2018-04-16T02:22:31.189Z,97.23
2018-04-16T02:25:10.061Z,85.30
2018-04-16T02:27:50.112Z,89.80
2018-04-16T02:30:29.943Z,89.20
2018-04-16T02:33:08.997Z,94.10
2018-04-16T02:35:48.024Z,100.03
2018-04-16T02:38:28.131Z,90.80
2018-04-16T02:41:07.140Z,90.17
2018-04-16T02:43:46.206Z,96.03
2018-04-16T02:46:26.168Z,89.43
2018-04-16T02:49:06.028Z,88.83
2018-04-16T02:51:45.115Z,94.87
2018-04-16T02:54:25.171Z,95.37
2018-04-16T02:57:05.132Z,94.40
2018-04-16T02:59:45.048Z,93.23
2018-04-16T03:02:25.440Z,93.67
2018-04-16T03:05:05.209Z,84.57
2018-04-16T03:07:44.269Z,89.00
2018-04-16T03:10:23.331Z,88.87
2018-04-16T03:13:02.340Z,94.50
2018-04-16T03:15:41.437Z,94.40
2018-04-16T03:18:20.794Z,91.27
2018-04-16T03:20:59.831Z,87.20
2018-04-16T03:23:38.981Z,83.87
2018-04-16T03:26:18.934Z,90.67
2018-04-16T03:28:58.836Z,87.17
2018-04-16T03:31:37.564Z,90.50
2018-04-16T03:34:16.672Z,95.73
2018-04-16T03:36:55.688Z,104.40
2018-04-16T03:39:34.891Z,103.37
2018-04-16T03:42:14.807Z,100.63
2018-04-16T03:44:53.940Z,90.33
2018-04-16T03:47:34.084Z,93.30
2018-04-16T03:50:14.120Z,108.37
2018-04-16T03:52:53.314Z,106.97
2018-04-16T03:55:28.660Z,110.50
2018-04-16T03:58:03.303Z,97.23
2018-04-16T04:00:36.939Z,97.87
2018-04-16T04:03:10.604Z,103.17
2018-04-16T04:05:44.239Z,100.17
2018-04-16T04:08:17.928Z,97.80
2018-04-16T04:10:51.551Z,102.57
2018-04-16T04:13:26.196Z,104.07
2018-04-16T04:16:00.377Z,97.93
2018-04-16T04:18:35.006Z,103.90
2018-04-16T04:21:09.626Z,104.80
2018-04-16T04:23:54.471Z,101.30
2018-04-16T04:26:39.349Z,104.57
2018-04-16T04:29:25.180Z,101.03
2018-04-16T04:31:58.814Z,90.30
2018-04-16T04:34:32.496Z,102.40
2018-04-16T04:37:06.139Z,98.27
2018-04-16T04:39:40.835Z,92.63
2018-04-16T04:42:14.472Z,89.33
2018-04-16T04:44:49.124Z,86.50
2018-04-16T04:47:22.784Z,97.90
2018-04-16T04:49:56.494Z,86.53
2018-04-16T04:52:30.136Z,81.50
2018-04-16T04:55:04.792Z,88.13
2018-04-16T04:57:38.422Z,82.10
2018-04-16T05:00:13.129Z,90.47
2018-04-16T05:02:47.756Z,82.53
2018-04-16T05:05:22.415Z,80.07
2018-04-16T05:07:56.091Z,87.80
2018-04-16T05:10:30.735Z,87.70
2018-04-16T05:13:10.944Z,78.77
2018-04-16T05:15:44.822Z,82.70
2018-04-16T05:18:19.273Z,78.90
2018-04-16T05:20:53.070Z,82.57
2018-04-16T05:23:26.702Z,77.17
2018-04-16T05:26:00.376Z,74.07
2018-04-16T05:28:34.968Z,75.50
2018-04-16T05:31:08.417Z,76.93
2018-04-16T05:33:42.039Z,72.93
2018-04-16T05:36:16.248Z,77.53
2018-04-16T05:38:49.678Z,70.47
2018-04-16T05:41:24.468Z,70.07
2018-04-16T05:43:58.104Z,74.33
2018-04-16T05:46:31.774Z,72.20
2018-04-16T05:49:06.162Z,70.90
2018-04-16T05:51:40.829Z,70.37
2018-04-16T05:54:15.225Z,71.43
2018-04-16T05:56:49.892Z,67.97
2018-04-16T05:59:24.286Z,67.07
2018-04-16T06:01:59.705Z,70.73
2018-04-16T06:04:33.352Z,65.17
2018-04-16T06:07:08.008Z,72.53
2018-04-16T06:09:41.644Z,69.97
2018-04-16T06:12:16.077Z,69.97
2018-04-16T06:14:50.664Z,68.33
2018-04-16T06:17:24.364Z,74.63
2018-04-16T06:19:57.780Z,78.53
2018-04-16T06:22:31.462Z,69.70
2018-04-16T06:25:04.880Z,68.70
2018-04-16T06:27:39.303Z,71.13
2018-04-16T06:30:13.719Z,74.73
2018-04-16T06:32:48.155Z,73.60
2018-04-16T06:35:21.613Z,72.90
2018-04-16T06:37:55.275Z,70.10
2018-04-16T06:40:28.903Z,71.33
2018-04-16T06:43:02.570Z,71.77
2018-04-16T06:45:36.203Z,72.73
2018-04-16T06:48:09.870Z,76.67
2018-04-16T06:50:43.493Z,68.10
2018-04-16T06:53:16.947Z,71.50
2018-04-16T06:55:50.575Z,74.00
2018-04-16T06:58:24.247Z,65.53
2018-04-16T07:00:58.839Z,71.97
2018-04-16T07:03:33.475Z,71.70
2018-04-16T07:06:08.083Z,68.77
2018-04-16T07:08:41.757Z,67.83
2018-04-16T07:11:16.373Z,65.87
2018-04-16T07:13:50.050Z,64.10
2018-04-16T07:16:23.476Z,64.70
2018-04-16T07:18:57.933Z,67.10
2018-04-16T07:21:32.317Z,61.67
2018-04-16T07:24:06.997Z,62.80
2018-04-16T07:26:40.623Z,65.17
2018-04-16T07:29:14.308Z,60.90
2018-04-16T07:31:47.945Z,64.93
2018-04-16T07:34:21.636Z,65.73
2018-04-16T07:36:55.937Z,62.73
2018-04-16T07:39:29.803Z,62.67
2018-04-16T07:42:04.200Z,61.53
2018-04-16T07:44:38.867Z,66.00
2018-04-16T07:47:12.521Z,66.00
2018-04-16T07:49:45.887Z,57.90
2018-04-16T07:52:19.520Z,61.80
2018-04-16T07:54:53.193Z,57.37
2018-04-16T07:57:27.783Z,57.20
2018-04-16T08:00:02.432Z,56.33
2018-04-16T08:02:37.036Z,58.57
2018-04-16T08:05:11.675Z,61.10
2018-04-16T08:07:45.308Z,56.77
2018-04-16T08:10:19.942Z,50.30
2018-04-16T08:12:53.356Z,48.70
2018-04-16T08:15:27.800Z,46.97
2018-04-16T08:18:01.491Z,47.13
2018-04-16T08:20:36.887Z,49.93
2018-04-16T08:23:11.493Z,48.70
2018-04-16T08:25:45.155Z,51.03
2018-04-16T08:28:19.554Z,51.50
2018-04-16T08:30:53.229Z,52.10
2018-04-16T08:33:26.876Z,45.27
2018-04-16T08:36:01.087Z,45.07
2018-04-16T08:38:36.287Z,45.43
2018-04-16T08:41:09.976Z,43.00
2018-04-16T08:43:43.610Z,47.83
2018-04-16T08:46:17.288Z,43.00
2018-04-16T08:48:51.887Z,40.77
2018-04-16T08:51:25.757Z,39.87
2018-04-16T08:54:01.134Z,41.67
2018-04-16T08:56:34.477Z,44.57
2018-04-16T08:59:08.892Z,45.43
2018-04-16T09:01:42.357Z,45.80
2018-04-16T09:04:16.731Z,39.87
2018-04-16T09:06:51.176Z,41.33
2018-04-16T09:09:24.812Z,42.00
2018-04-16T09:11:58.507Z,41.77
2018-04-16T09:14:32.905Z,43.77
2018-04-16T09:17:07.569Z,41.10
2018-04-16T09:19:41.199Z,39.30
2018-04-16T09:22:15.844Z,35.13
2018-04-16T09:24:49.473Z,35.13
2018-04-16T09:27:23.143Z,40.70
2018-04-16T09:29:56.775Z,37.27
2018-04-16T09:32:30.488Z,35.40
2018-04-16T09:35:05.080Z,37.43
2018-04-16T09:37:39.724Z,36.03
2018-04-16T09:40:13.351Z,36.27
2018-04-16T09:42:47.788Z,34.00
2018-04-16T09:45:21.414Z,36.73
2018-04-16T09:47:56.064Z,33.33
2018-04-16T09:50:29.708Z,33.37
2018-04-16T09:53:04.151Z,30.07
2018-04-16T09:55:38.755Z,32.07
2018-04-16T09:58:12.419Z,34.73
2018-04-16T10:00:51.118Z,31.60
2018-04-16T10:03:25.519Z,31.17
2018-04-16T10:05:58.952Z,34.53
2018-04-16T10:08:33.581Z,32.23
2018-04-16T10:11:08.156Z,29.43
2018-04-16T10:13:41.827Z,28.63
2018-04-16T10:16:16.222Z,29.60
2018-04-16T10:18:49.894Z,27.13
2018-04-16T10:21:23.526Z,27.27
2018-04-16T10:23:57.210Z,31.13
2018-04-16T10:26:30.931Z,29.47
2018-04-16T10:29:04.776Z,27.17
2018-04-16T10:31:38.188Z,31.53
2018-04-16T10:34:12.213Z,29.10
2018-04-16T10:36:46.589Z,33.33
2018-04-16T10:39:20.595Z,32.30
2018-04-16T10:41:54.809Z,36.25
2018-04-16T10:44:30.444Z,29.17
2018-04-16T10:47:04.633Z,27.77
2018-04-16T10:49:38.881Z,28.42
2018-04-16T10:52:13.313Z,28.55
2018-04-16T10:54:48.328Z,26.42
2018-04-16T10:57:22.357Z,27.20
2018-04-16T10:59:56.255Z,25.77
2018-04-16T11:02:31.422Z,23.52
2018-04-16T11:05:07.183Z,28.90
2018-04-16T11:07:43.103Z,29.37
2018-04-16T11:10:17.339Z,23.85
2018-04-16T11:12:51.524Z,26.02
2018-04-16T11:15:25.760Z,27.42
2018-04-16T11:18:01.658Z,24.58
2018-04-16T11:20:36.676Z,22.15
2018-04-16T11:23:10.647Z,28.20
2018-04-16T11:25:44.885Z,24.50
2018-04-16T11:28:20.683Z,27.33
2018-04-16T11:30:54.702Z,26.95
2018-04-16T11:33:28.684Z,25.95
2018-04-16T11:36:02.946Z,25.95
2018-04-16T11:38:37.923Z,23.95
2018-04-16T11:41:12.157Z,26.08
2018-04-16T11:43:47.268Z,24.55
2018-04-16T11:46:22.516Z,25.58
2018-04-16T11:48:56.726Z,24.87
2018-04-16T11:51:30.756Z,26.65
2018-04-16T11:54:04.962Z,24.20
2018-04-16T11:56:39.204Z,25.30
2018-04-16T11:59:13.409Z,26.50
2018-04-16T12:01:47.432Z,27.33
2018-04-16T12:04:21.719Z,28.42
2018-04-16T12:06:56.091Z,29.87
2018-04-16T12:09:30.903Z,28.00
2018-04-16T12:12:05.146Z,28.08
2018-04-16T12:14:40.100Z,25.75
2018-04-16T12:17:14.340Z,26.73
2018-04-16T12:19:48.534Z,26.45
2018-04-16T12:22:22.790Z,26.23
2018-04-16T12:24:57.164Z,26.83
2018-04-16T12:27:32.331Z,26.85
2018-04-16T12:30:06.536Z,26.67
2018-04-16T12:32:40.758Z,26.20
2018-04-16T12:35:15.925Z,29.08
2018-04-16T12:37:51.148Z,29.67
2018-04-16T12:40:25.352Z,27.10
2018-04-16T12:42:59.031Z,29.67
2018-04-16T12:45:34.424Z,28.13
2018-04-16T12:48:08.121Z,29.83
2018-04-16T12:50:41.937Z,30.87
2018-04-16T12:53:15.608Z,31.03
2018-04-16T12:55:49.243Z,28.67
2018-04-16T12:58:22.919Z,28.67
2018-04-16T13:00:56.552Z,28.03
2018-04-16T13:03:30.075Z,27.03
2018-04-16T13:06:05.457Z,28.90
2018-04-16T13:08:39.130Z,28.57
2018-04-16T13:11:12.760Z,26.30
2018-04-16T13:13:46.432Z,27.53
2018-04-16T13:16:20.059Z,28.97
2018-04-16T13:18:53.732Z,29.70
2018-04-16T13:21:27.359Z,29.33
2018-04-16T13:24:02.015Z,31.93
2018-04-16T13:26:35.667Z,32.03
2018-04-16T13:29:09.340Z,31.93
2018-04-16T13:31:44.693Z,29.57
2018-04-16T13:34:19.131Z,27.63
2018-04-16T13:36:52.773Z,28.83
2018-04-16T13:39:27.441Z,29.33
2018-04-16T13:42:01.080Z,29.63
2018-04-16T13:44:34.753Z,32.17
2018-04-16T13:47:08.392Z,27.73
2018-04-16T13:49:41.729Z,30.60
2018-04-16T13:52:16.129Z,26.80
2018-04-16T13:54:49.823Z,28.73
2018-04-16T13:57:23.459Z,27.07
2018-04-16T13:59:58.124Z,27.37
2018-04-16T14:02:32.717Z,25.93
2018-04-16T14:05:06.393Z,26.23
2018-04-16T14:07:40.788Z,24.93
2018-04-16T14:10:14.457Z,24.57
2018-04-16T14:12:48.083Z,25.43
2018-04-16T14:15:22.791Z,25.97
2018-04-16T14:17:57.387Z,24.30
2018-04-16T14:20:31.104Z,23.50
2018-04-16T14:23:09.128Z,26.27
2018-04-16T14:25:44.470Z,23.63
2018-04-16T14:28:20.213Z,23.20
2018-04-16T14:30:54.938Z,22.63
2018-04-16T14:33:28.619Z,26.57
2018-04-16T14:36:02.367Z,26.93
2018-04-16T14:38:37.137Z,25.50
2018-04-16T14:41:10.776Z,27.07
2018-04-16T14:43:46.771Z,22.87
2018-04-16T14:46:21.391Z,27.37
2018-04-16T14:48:56.800Z,24.70
2018-04-16T14:51:30.433Z,24.70
2018-04-16T14:54:04.550Z,27.07
2018-04-16T14:56:39.915Z,28.27
2018-04-16T14:59:15.088Z,27.03
2018-04-16T15:01:51.298Z,25.67
2018-04-16T15:04:24.783Z,26.83
2018-04-16T15:06:59.364Z,25.37
2018-04-16T15:09:33.038Z,27.97
2018-04-16T15:12:08.130Z,26.17
2018-04-16T15:14:43.888Z,25.50
2018-04-16T15:17:18.131Z,27.07
2018-04-16T15:19:53.239Z,25.40
2018-04-16T15:22:28.139Z,28.40
2018-04-16T15:25:02.988Z,24.03
2018-04-16T15:27:39.515Z,26.17
2018-04-16T15:30:25.564Z,26.43
2018-04-16T15:35:59.361Z,27.77
2018-04-16T15:38:33.250Z,25.70
2018-04-16T15:41:06.707Z,26.73
2018-04-16T15:43:42.821Z,25.20
2018-04-16T15:46:16.619Z,25.97
2018-04-16T15:48:51.316Z,28.77
2018-04-16T15:51:25.955Z,26.73
2018-04-16T15:53:59.640Z,28.03
2018-04-16T15:56:33.306Z,25.13
2018-04-16T15:59:08.768Z,28.60
2018-04-16T16:01:42.907Z,26.93
2018-04-16T16:04:16.587Z,25.87
2018-04-16T16:06:52.293Z,30.33
2018-04-16T16:09:26.586Z,27.53
2018-04-16T16:12:05.259Z,25.83
2018-04-16T16:14:44.654Z,26.87
2018-04-16T16:17:33.520Z,25.27
2018-04-16T16:20:07.256Z,26.57
2018-04-16T16:22:41.911Z,28.07
2018-04-16T16:25:15.561Z,28.80
2018-04-16T16:27:50.238Z,29.47
2018-04-16T16:30:23.884Z,28.03
2018-04-16T16:32:58.337Z,30.73
2018-04-16T16:35:31.983Z,32.20
2018-04-16T16:38:07.543Z,31.47
2018-04-16T16:40:41.241Z,33.47
2018-04-16T16:43:16.698Z,29.60
2018-04-16T16:45:50.397Z,33.77
2018-04-16T16:48:24.076Z,32.70
2018-04-16T16:50:57.776Z,32.50
2018-04-16T16:53:31.424Z,28.27
2018-04-16T16:56:05.215Z,30.17
2018-04-16T16:58:38.959Z,30.80
2018-04-16T17:01:12.623Z,28.37
2018-04-16T17:03:47.247Z,30.40
2018-04-16T17:06:21.136Z,28.43
2018-04-16T17:08:55.531Z,30.57
2018-04-16T17:11:30.160Z,30.90
2018-04-16T17:14:04.567Z,29.53
2018-04-16T17:16:39.224Z,31.80
2018-04-16T17:19:13.620Z,30.50
2018-04-16T17:21:47.337Z,31.63
2018-04-16T17:24:21.743Z,31.73
2018-04-16T17:26:57.156Z,30.03
2018-04-16T17:29:30.788Z,29.37
2018-04-16T17:32:05.641Z,32.03
2018-04-16T17:34:42.986Z,32.50
2018-04-16T17:37:16.695Z,30.43
2018-04-16T17:39:50.327Z,32.07
2018-04-16T17:42:24.934Z,32.97
2018-04-16T17:44:59.328Z,35.13
2018-04-16T17:47:33.003Z,37.00
2018-04-16T17:50:06.316Z,34.37
2018-04-16T17:52:39.997Z,39.17
2018-04-16T17:55:13.634Z,34.13
2018-04-16T17:57:47.301Z,30.13
2018-04-16T18:00:20.736Z,31.40
2018-04-16T18:02:54.664Z,34.50
2018-04-16T18:05:28.336Z,33.40
2018-04-16T18:08:03.024Z,32.83
2018-04-16T18:10:36.380Z,37.03
2018-04-16T18:13:11.029Z,35.17
2018-04-16T18:15:44.672Z,36.30
2018-04-16T18:18:18.019Z,33.87
2018-04-16T18:20:52.669Z,35.33
2018-04-16T18:23:27.316Z,33.27
2018-04-16T18:26:01.904Z,35.70
2018-04-16T18:28:35.568Z,39.37
2018-04-16T18:31:10.949Z,39.20
2018-04-16T18:33:45.600Z,35.27
2018-04-16T18:36:19.259Z,38.10
2018-04-16T18:38:53.029Z,36.43
2018-04-16T18:41:27.427Z,37.87
2018-04-16T18:44:01.099Z,36.77
2018-04-16T18:46:34.736Z,37.67
2018-04-16T18:49:08.407Z,38.33
2018-04-16T18:51:41.887Z,38.10
2018-04-16T18:54:15.552Z,39.33
2018-04-16T18:56:50.911Z,41.60
2018-04-16T18:59:24.579Z,40.27
2018-04-16T19:01:58.232Z,40.83
2018-04-16T19:04:31.570Z,42.17
2018-04-16T19:07:05.222Z,39.67
2018-04-16T19:09:38.886Z,43.07
2018-04-16T19:12:12.601Z,38.23
2018-04-16T19:14:46.287Z,38.67
2018-04-16T19:17:20.898Z,37.27
2018-04-16T19:19:54.577Z,36.77
2018-04-16T19:22:28.227Z,37.27
2018-04-16T19:25:02.909Z,39.23
2018-04-16T19:27:42.041Z,34.77
2018-04-16T19:30:15.711Z,38.30
2018-04-16T19:32:54.720Z,34.80
2018-04-16T19:35:29.362Z,39.30
2018-04-16T19:38:03.842Z,36.57
2018-04-16T19:40:39.219Z,37.33
2018-04-16T19:43:12.848Z,37.77
2018-04-16T19:45:46.512Z,38.57
2018-04-16T19:48:19.926Z,37.33
2018-04-16T19:50:53.597Z,39.50
2018-04-16T19:53:27.231Z,39.63
2018-04-16T19:56:07.460Z,43.77
2018-04-16T19:58:41.300Z,43.73
2018-04-16T20:01:14.972Z,42.17
2018-04-16T20:03:53.943Z,43.63
2018-04-16T20:06:28.011Z,45.80
2018-04-16T20:09:01.643Z,46.73
2018-04-16T20:11:36.285Z,43.83
2018-04-16T20:14:10.400Z,43.07
2018-04-16T20:16:44.856Z,42.43
2018-04-16T20:19:18.524Z,44.30
2018-04-16T20:21:52.926Z,46.27
2018-04-16T20:24:27.582Z,41.07
2018-04-16T20:27:03.294Z,39.47
2018-04-16T20:29:36.960Z,42.47
2018-04-16T20:32:10.373Z,44.30
2018-04-16T20:34:44.563Z,40.03
2018-04-16T20:37:19.151Z,50.17
2018-04-16T20:39:53.583Z,44.77
2018-04-16T20:42:27.224Z,37.90
2018-04-16T20:45:00.892Z,41.80
2018-04-16T20:47:35.488Z,36.63
2018-04-16T20:50:09.915Z,40.83
2018-04-16T20:52:44.359Z,40.13
2018-04-16T20:55:18.024Z,39.87
2018-04-16T20:57:51.656Z,37.10
2018-04-16T21:00:26.295Z,38.63
2018-04-16T21:02:59.982Z,39.30
2018-04-16T21:05:34.612Z,40.53
2018-04-16T21:08:08.248Z,38.73
2018-04-16T21:10:42.686Z,39.27
2018-04-16T21:13:16.356Z,43.03
2018-04-16T21:15:50.012Z,42.60
2018-04-16T21:18:24.404Z,39.50
2018-04-16T21:20:58.075Z,40.33
2018-04-16T21:23:31.713Z,40.60
2018-04-16T21:26:06.411Z,41.30
2018-04-16T21:28:40.039Z,41.77
2018-04-16T21:31:13.723Z,49.03
2018-04-16T21:33:48.319Z,46.23
2018-04-16T21:36:21.992Z,48.27
2018-04-16T21:38:55.621Z,47.63
2018-04-16T21:41:30.294Z,43.57
2018-04-16T21:44:04.982Z,49.67
2018-04-16T21:46:38.366Z,45.10
2018-04-16T21:49:12.305Z,46.20
2018-04-16T21:51:46.969Z,44.27
2018-04-16T21:54:22.395Z,47.13
2018-04-16T21:56:56.268Z,47.37
2018-04-16T21:59:29.955Z,46.47
2018-04-16T22:02:03.460Z,41.53
2018-04-16T22:04:37.103Z,44.70
2018-04-16T22:07:12.177Z,45.73
2018-04-16T22:09:46.921Z,45.30
2018-04-16T22:12:20.768Z,51.00
2018-04-16T22:14:55.212Z,46.07
2018-04-16T22:17:28.863Z,48.30
2018-04-16T22:20:03.530Z,45.17
2018-04-16T22:22:36.941Z,45.37
2018-04-16T22:25:10.614Z,48.03
2018-04-16T22:27:44.239Z,48.67
2018-04-16T22:30:17.908Z,47.40
2018-04-16T22:32:52.300Z,46.47
2018-04-16T22:35:25.979Z,48.43
2018-04-16T22:38:00.568Z,53.23
2018-04-16T22:40:35.200Z,52.43
2018-04-16T22:43:09.570Z,46.37
2018-04-16T22:45:43.232Z,49.00
2018-04-16T22:48:16.865Z,49.70
2018-04-16T22:50:50.536Z,52.73
2018-04-16T22:53:25.148Z,52.03
2018-04-16T22:55:58.816Z,46.03
2018-04-16T22:58:33.223Z,54.73
2018-04-16T23:01:07.660Z,50.27
2018-04-16T23:03:41.359Z,52.77
2018-04-16T23:06:15.048Z,50.93
2018-04-16T23:08:49.455Z,50.60
2018-04-16T23:11:23.123Z,53.30
2018-04-16T23:13:56.755Z,48.80
2018-04-16T23:16:30.427Z,51.00
2018-04-16T23:19:04.713Z,52.13
2018-04-16T23:21:38.389Z,47.37
2018-04-16T23:24:12.787Z,54.73
2018-04-16T23:26:46.457Z,51.93
2018-04-16T23:29:20.090Z,50.93
2018-04-16T23:31:54.747Z,47.50
2018-04-16T23:34:28.380Z,49.33
2018-04-16T23:37:02.056Z,47.33
2018-04-16T23:39:35.690Z,49.03
2018-04-16T23:42:09.369Z,46.37
2018-04-16T23:44:42.991Z,50.10
2018-04-16T23:47:17.627Z,49.50
2018-04-16T23:49:51.256Z,52.97
2018-04-16T23:52:25.907Z,53.50
2018-04-16T23:54:59.529Z,50.10
2018-04-16T23:57:33.204Z,51.97
